sensor_id;sensor_type;location;lat;lon;timestamp;temperature;humidity
16666;DHT22;8446;50.998;6.250;2023-12-04T00:01:33;0.80;99.90
16666;DHT22;8446;50.998;6.250;2023-12-04T00:04:01;0.90;99.90
16666;DHT22;8446;50.998;6.250;2023-12-04T00:06:28;0.90;99.90
16666;DHT22;8446;50.998;6.250;2023-12-04T00:08:55;0.90;99.90
16666;DHT22;8446;50.998;6.250;2023-12-04T00:11:22;0.80;99.90
16666;DHT22;8446;50.998;6.250;2023-12-04T00:13:49;0.60;99.90
16666;DHT22;8446;50.998;6.250;2023-12-04T00:16:15;0.50;99.90
16666;DHT22;8446;50.998;6.250;2023-12-04T00:18:42;0.40;99.90
16666;DHT22;8446;50.998;6.250;2023-12-04T00:21:10;0.30;99.90
16666;DHT22;8446;50.998;6.250;2023-12-04T00:23:41;0.20;99.90
16666;DHT22;8446;50.998;6.250;2023-12-04T00:26:12;0.20;99.90
16666;DHT22;8446;50.998;6.250;2023-12-04T00:28:39;0.30;99.90
16666;DHT22;8446;50.998;6.250;2023-12-04T00:31:06;0.40;99.90
16666;DHT22;8446;50.998;6.250;2023-12-04T00:33:36;0.30;99.90
16666;DHT22;8446;50.998;6.250;2023-12-04T00:36:03;0.20;99.90
16666;DHT22;8446;50.998;6.250;2023-12-04T00:38:32;0.20;99.90
16666;DHT22;8446;50.998;6.250;2023-12-04T00:40:58;0.20;99.90
16666;DHT22;8446;50.998;6.250;2023-12-04T00:43:26;0.20;99.90
16666;DHT22;8446;50.998;6.250;2023-12-04T00:45:52;0.20;99.90
16666;DHT22;8446;50.998;6.250;2023-12-04T00:48:19;0.20;99.90
16666;DHT22;8446;50.998;6.250;2023-12-04T00:50:46;0.20;99.90
16666;DHT22;8446;50.998;6.250;2023-12-04T00:53:13;0.10;99.90
16666;DHT22;8446;50.998;6.250;2023-12-04T00:55:45;0.10;99.90
16666;DHT22;8446;50.998;6.250;2023-12-04T00:58:14;0.00;99.90
16666;DHT22;8446;50.998;6.250;2023-12-04T01:00:41;0.10;99.90
16666;DHT22;8446;50.998;6.250;2023-12-04T01:03:08;0.10;99.90
16666;DHT22;8446;50.998;6.250;2023-12-04T01:05:35;0.10;99.90
16666;DHT22;8446;50.998;6.250;2023-12-04T01:08:02;0.00;99.90
16666;DHT22;8446;50.998;6.250;2023-12-04T01:10:28;0.00;99.90
16666;DHT22;8446;50.998;6.250;2023-12-04T01:12:57;0.00;99.90
16666;DHT22;8446;50.998;6.250;2023-12-04T01:15:23;-0.10;99.90
16666;DHT22;8446;50.998;6.250;2023-12-04T01:17:50;-0.20;99.90
16666;DHT22;8446;50.998;6.250;2023-12-04T01:20:17;-0.10;99.90
16666;DHT22;8446;50.998;6.250;2023-12-04T01:22:44;-0.10;99.90
16666;DHT22;8446;50.998;6.250;2023-12-04T01:25:11;-0.10;99.90
16666;DHT22;8446;50.998;6.250;2023-12-04T01:27:38;0.00;99.90
16666;DHT22;8446;50.998;6.250;2023-12-04T01:30:08;0.00;99.90
16666;DHT22;8446;50.998;6.250;2023-12-04T01:32:35;0.00;99.90
16666;DHT22;8446;50.998;6.250;2023-12-04T01:35:02;0.00;99.90
16666;DHT22;8446;50.998;6.250;2023-12-04T01:37:30;0.00;99.90
16666;DHT22;8446;50.998;6.250;2023-12-04T01:39:58;0.00;99.90
16666;DHT22;8446;50.998;6.250;2023-12-04T01:42:25;0.00;99.90
16666;DHT22;8446;50.998;6.250;2023-12-04T01:44:52;0.00;99.90
16666;DHT22;8446;50.998;6.250;2023-12-04T01:47:21;0.10;99.90
16666;DHT22;8446;50.998;6.250;2023-12-04T01:49:48;0.20;99.90
16666;DHT22;8446;50.998;6.250;2023-12-04T01:52:15;0.20;99.90
16666;DHT22;8446;50.998;6.250;2023-12-04T01:54:42;0.30;99.90
16666;DHT22;8446;50.998;6.250;2023-12-04T01:57:10;0.30;99.90
16666;DHT22;8446;50.998;6.250;2023-12-04T01:59:37;0.40;99.90
16666;DHT22;8446;50.998;6.250;2023-12-04T02:02:05;0.30;99.90
16666;DHT22;8446;50.998;6.250;2023-12-04T02:04:33;0.30;99.90
16666;DHT22;8446;50.998;6.250;2023-12-04T02:07:00;0.30;99.90
16666;DHT22;8446;50.998;6.250;2023-12-04T02:09:28;0.30;99.90
16666;DHT22;8446;50.998;6.250;2023-12-04T02:11:55;0.40;99.90
16666;DHT22;8446;50.998;6.250;2023-12-04T02:14:22;0.40;99.90
16666;DHT22;8446;50.998;6.250;2023-12-04T02:16:50;0.40;99.90
16666;DHT22;8446;50.998;6.250;2023-12-04T02:19:18;0.40;99.90
16666;DHT22;8446;50.998;6.250;2023-12-04T02:21:47;0.40;99.90
16666;DHT22;8446;50.998;6.250;2023-12-04T02:24:15;0.30;99.90
16666;DHT22;8446;50.998;6.250;2023-12-04T02:26:47;0.30;99.90
16666;DHT22;8446;50.998;6.250;2023-12-04T02:29:30;0.30;99.90
16666;DHT22;8446;50.998;6.250;2023-12-04T02:31:58;0.40;99.90
16666;DHT22;8446;50.998;6.250;2023-12-04T02:34:27;0.40;99.90
16666;DHT22;8446;50.998;6.250;2023-12-04T02:36:57;0.40;99.90
16666;DHT22;8446;50.998;6.250;2023-12-04T02:39:26;0.40;99.90
16666;DHT22;8446;50.998;6.250;2023-12-04T02:41:53;0.50;99.90
16666;DHT22;8446;50.998;6.250;2023-12-04T02:44:19;0.50;99.90
16666;DHT22;8446;50.998;6.250;2023-12-04T02:46:47;0.50;99.90
16666;DHT22;8446;50.998;6.250;2023-12-04T02:49:13;0.40;99.90
16666;DHT22;8446;50.998;6.250;2023-12-04T02:51:40;0.40;99.90
16666;DHT22;8446;50.998;6.250;2023-12-04T02:54:07;0.50;99.90
16666;DHT22;8446;50.998;6.250;2023-12-04T02:56:36;0.50;99.90
16666;DHT22;8446;50.998;6.250;2023-12-04T02:59:02;0.50;99.90
16666;DHT22;8446;50.998;6.250;2023-12-04T03:01:29;0.50;99.90
16666;DHT22;8446;50.998;6.250;2023-12-04T03:03:56;0.50;99.90
16666;DHT22;8446;50.998;6.250;2023-12-04T03:06:23;0.60;99.90
16666;DHT22;8446;50.998;6.250;2023-12-04T03:08:50;0.50;99.90
16666;DHT22;8446;50.998;6.250;2023-12-04T03:11:17;0.60;99.90
16666;DHT22;8446;50.998;6.250;2023-12-04T03:13:45;0.60;99.90
16666;DHT22;8446;50.998;6.250;2023-12-04T03:16:15;0.60;99.90
16666;DHT22;8446;50.998;6.250;2023-12-04T03:18:42;0.70;99.90
16666;DHT22;8446;50.998;6.250;2023-12-04T03:21:09;0.80;99.90
16666;DHT22;8446;50.998;6.250;2023-12-04T03:23:36;0.90;99.90
16666;DHT22;8446;50.998;6.250;2023-12-04T03:26:04;0.90;99.90
16666;DHT22;8446;50.998;6.250;2023-12-04T03:28:31;0.90;99.90
16666;DHT22;8446;50.998;6.250;2023-12-04T03:30:59;0.80;99.90
16666;DHT22;8446;50.998;6.250;2023-12-04T03:33:26;0.70;99.90
16666;DHT22;8446;50.998;6.250;2023-12-04T03:35:53;0.80;99.90
16666;DHT22;8446;50.998;6.250;2023-12-04T03:38:20;0.80;99.90
16666;DHT22;8446;50.998;6.250;2023-12-04T03:40:46;0.70;99.90
16666;DHT22;8446;50.998;6.250;2023-12-04T03:43:13;0.80;99.90
16666;DHT22;8446;50.998;6.250;2023-12-04T03:45:40;0.80;99.90
16666;DHT22;8446;50.998;6.250;2023-12-04T03:48:08;0.80;99.90
16666;DHT22;8446;50.998;6.250;2023-12-04T03:50:35;0.80;99.90
16666;DHT22;8446;50.998;6.250;2023-12-04T03:53:02;0.90;99.90
16666;DHT22;8446;50.998;6.250;2023-12-04T03:55:29;0.90;99.90
16666;DHT22;8446;50.998;6.250;2023-12-04T03:57:57;0.90;99.90
16666;DHT22;8446;50.998;6.250;2023-12-04T04:00:24;0.90;99.90
16666;DHT22;8446;50.998;6.250;2023-12-04T04:02:51;0.90;99.90
16666;DHT22;8446;50.998;6.250;2023-12-04T04:05:20;0.80;99.90
16666;DHT22;8446;50.998;6.250;2023-12-04T04:07:46;0.90;99.90
16666;DHT22;8446;50.998;6.250;2023-12-04T04:10:13;0.80;99.90
16666;DHT22;8446;50.998;6.250;2023-12-04T04:12:40;0.70;99.90
16666;DHT22;8446;50.998;6.250;2023-12-04T04:15:07;0.70;99.90
16666;DHT22;8446;50.998;6.250;2023-12-04T04:17:35;0.80;99.90
16666;DHT22;8446;50.998;6.250;2023-12-04T04:20:01;0.80;99.90
16666;DHT22;8446;50.998;6.250;2023-12-04T04:22:30;0.70;99.90
16666;DHT22;8446;50.998;6.250;2023-12-04T04:25:00;0.70;99.90
16666;DHT22;8446;50.998;6.250;2023-12-04T04:27:26;0.80;99.90
16666;DHT22;8446;50.998;6.250;2023-12-04T04:29:53;0.70;99.90
16666;DHT22;8446;50.998;6.250;2023-12-04T04:32:20;0.70;99.90
16666;DHT22;8446;50.998;6.250;2023-12-04T04:34:47;0.80;99.90
16666;DHT22;8446;50.998;6.250;2023-12-04T04:37:14;0.70;99.90
16666;DHT22;8446;50.998;6.250;2023-12-04T04:39:43;0.60;99.90
16666;DHT22;8446;50.998;6.250;2023-12-04T04:42:10;0.60;99.90
16666;DHT22;8446;50.998;6.250;2023-12-04T04:44:37;0.80;99.90
16666;DHT22;8446;50.998;6.250;2023-12-04T04:47:07;0.80;99.90
16666;DHT22;8446;50.998;6.250;2023-12-04T04:49:34;0.90;99.90
16666;DHT22;8446;50.998;6.250;2023-12-04T04:52:01;0.80;99.90
16666;DHT22;8446;50.998;6.250;2023-12-04T04:54:30;0.90;99.90
16666;DHT22;8446;50.998;6.250;2023-12-04T04:56:59;0.90;99.90
16666;DHT22;8446;50.998;6.250;2023-12-04T04:59:25;0.90;99.90
16666;DHT22;8446;50.998;6.250;2023-12-04T05:01:55;0.80;99.90
16666;DHT22;8446;50.998;6.250;2023-12-04T05:04:22;0.80;99.90
16666;DHT22;8446;50.998;6.250;2023-12-04T05:06:49;0.80;99.90
16666;DHT22;8446;50.998;6.250;2023-12-04T05:09:16;0.90;99.90
16666;DHT22;8446;50.998;6.250;2023-12-04T05:11:43;1.00;99.90
16666;DHT22;8446;50.998;6.250;2023-12-04T05:14:11;1.00;99.90
16666;DHT22;8446;50.998;6.250;2023-12-04T05:16:38;1.00;99.90
16666;DHT22;8446;50.998;6.250;2023-12-04T05:19:05;1.00;99.90
16666;DHT22;8446;50.998;6.250;2023-12-04T05:21:32;0.90;99.90
16666;DHT22;8446;50.998;6.250;2023-12-04T05:23:59;1.00;99.90
16666;DHT22;8446;50.998;6.250;2023-12-04T05:26:26;1.20;99.90
16666;DHT22;8446;50.998;6.250;2023-12-04T05:28:52;1.00;99.90
16666;DHT22;8446;50.998;6.250;2023-12-04T05:31:20;0.90;99.90
16666;DHT22;8446;50.998;6.250;2023-12-04T05:33:47;0.90;99.90
16666;DHT22;8446;50.998;6.250;2023-12-04T05:36:14;0.90;99.90
16666;DHT22;8446;50.998;6.250;2023-12-04T05:38:41;0.90;99.90
16666;DHT22;8446;50.998;6.250;2023-12-04T05:41:08;0.90;99.90
16666;DHT22;8446;50.998;6.250;2023-12-04T05:43:34;0.90;99.90
16666;DHT22;8446;50.998;6.250;2023-12-04T05:46:01;1.00;99.90
16666;DHT22;8446;50.998;6.250;2023-12-04T05:48:29;0.90;99.90
16666;DHT22;8446;50.998;6.250;2023-12-04T05:50:56;0.90;99.90
16666;DHT22;8446;50.998;6.250;2023-12-04T05:53:23;0.80;99.90
16666;DHT22;8446;50.998;6.250;2023-12-04T05:55:50;0.80;99.90
16666;DHT22;8446;50.998;6.250;2023-12-04T05:58:17;0.80;99.90
16666;DHT22;8446;50.998;6.250;2023-12-04T06:00:43;0.80;99.90
16666;DHT22;8446;50.998;6.250;2023-12-04T06:03:10;0.90;99.90
16666;DHT22;8446;50.998;6.250;2023-12-04T06:05:38;0.90;99.90
16666;DHT22;8446;50.998;6.250;2023-12-04T06:08:05;0.90;99.90
16666;DHT22;8446;50.998;6.250;2023-12-04T06:10:32;0.80;99.90
16666;DHT22;8446;50.998;6.250;2023-12-04T06:13:00;0.80;99.90
16666;DHT22;8446;50.998;6.250;2023-12-04T06:15:27;0.70;99.90
16666;DHT22;8446;50.998;6.250;2023-12-04T06:17:54;0.70;99.90
16666;DHT22;8446;50.998;6.250;2023-12-04T06:20:20;0.70;99.90
16666;DHT22;8446;50.998;6.250;2023-12-04T06:22:49;0.60;99.90
16666;DHT22;8446;50.998;6.250;2023-12-04T06:25:17;0.60;99.90
16666;DHT22;8446;50.998;6.250;2023-12-04T06:27:45;0.60;99.90
16666;DHT22;8446;50.998;6.250;2023-12-04T06:30:12;0.60;99.90
16666;DHT22;8446;50.998;6.250;2023-12-04T06:32:40;0.60;99.90
16666;DHT22;8446;50.998;6.250;2023-12-04T06:35:08;0.60;99.90
16666;DHT22;8446;50.998;6.250;2023-12-04T06:37:38;0.50;99.90
16666;DHT22;8446;50.998;6.250;2023-12-04T06:40:08;0.60;99.90
16666;DHT22;8446;50.998;6.250;2023-12-04T06:42:37;0.60;99.90
16666;DHT22;8446;50.998;6.250;2023-12-04T06:45:05;0.70;99.90
16666;DHT22;8446;50.998;6.250;2023-12-04T06:47:34;0.70;99.90
16666;DHT22;8446;50.998;6.250;2023-12-04T06:50:01;0.70;99.90
16666;DHT22;8446;50.998;6.250;2023-12-04T06:52:28;0.70;99.90
16666;DHT22;8446;50.998;6.250;2023-12-04T06:54:55;0.70;99.90
16666;DHT22;8446;50.998;6.250;2023-12-04T06:57:23;0.60;99.90
16666;DHT22;8446;50.998;6.250;2023-12-04T06:59:50;0.60;99.90
16666;DHT22;8446;50.998;6.250;2023-12-04T07:02:16;0.60;99.90
16666;DHT22;8446;50.998;6.250;2023-12-04T07:04:43;0.70;99.90
16666;DHT22;8446;50.998;6.250;2023-12-04T07:07:10;0.80;99.90
16666;DHT22;8446;50.998;6.250;2023-12-04T07:09:37;1.00;99.90
16666;DHT22;8446;50.998;6.250;2023-12-04T07:12:05;1.00;99.90
16666;DHT22;8446;50.998;6.250;2023-12-04T07:14:33;1.10;99.90
16666;DHT22;8446;50.998;6.250;2023-12-04T07:17:00;1.00;99.90
16666;DHT22;8446;50.998;6.250;2023-12-04T07:19:27;1.10;99.90
16666;DHT22;8446;50.998;6.250;2023-12-04T07:21:54;1.10;99.90
16666;DHT22;8446;50.998;6.250;2023-12-04T07:24:21;1.10;99.90
16666;DHT22;8446;50.998;6.250;2023-12-04T07:26:48;1.10;99.90
16666;DHT22;8446;50.998;6.250;2023-12-04T07:29:14;1.10;99.90
16666;DHT22;8446;50.998;6.250;2023-12-04T07:31:43;1.10;99.90
16666;DHT22;8446;50.998;6.250;2023-12-04T07:34:09;1.10;99.90
16666;DHT22;8446;50.998;6.250;2023-12-04T07:36:36;1.00;99.90
16666;DHT22;8446;50.998;6.250;2023-12-04T07:39:03;1.00;99.90
16666;DHT22;8446;50.998;6.250;2023-12-04T07:41:32;1.10;99.90
16666;DHT22;8446;50.998;6.250;2023-12-04T07:43:59;1.10;99.90
16666;DHT22;8446;50.998;6.250;2023-12-04T07:46:25;1.10;99.90
16666;DHT22;8446;50.998;6.250;2023-12-04T07:48:53;1.20;99.90
16666;DHT22;8446;50.998;6.250;2023-12-04T07:51:20;1.10;99.90
16666;DHT22;8446;50.998;6.250;2023-12-04T07:53:47;1.10;99.90
16666;DHT22;8446;50.998;6.250;2023-12-04T07:56:14;1.00;99.90
16666;DHT22;8446;50.998;6.250;2023-12-04T07:58:41;1.00;99.90
16666;DHT22;8446;50.998;6.250;2023-12-04T08:01:08;1.00;99.90
16666;DHT22;8446;50.998;6.250;2023-12-04T08:03:35;1.00;99.90
16666;DHT22;8446;50.998;6.250;2023-12-04T08:06:04;1.00;99.90
16666;DHT22;8446;50.998;6.250;2023-12-04T08:08:31;0.90;99.90
16666;DHT22;8446;50.998;6.250;2023-12-04T08:10:58;0.90;99.90
16666;DHT22;8446;50.998;6.250;2023-12-04T08:13:25;0.90;99.90
16666;DHT22;8446;50.998;6.250;2023-12-04T08:15:52;0.90;99.90
16666;DHT22;8446;50.998;6.250;2023-12-04T08:18:18;1.00;99.90
16666;DHT22;8446;50.998;6.250;2023-12-04T08:20:45;0.90;99.90
16666;DHT22;8446;50.998;6.250;2023-12-04T08:23:13;0.90;99.90
16666;DHT22;8446;50.998;6.250;2023-12-04T08:25:40;1.00;99.90
16666;DHT22;8446;50.998;6.250;2023-12-04T08:28:07;1.00;99.90
16666;DHT22;8446;50.998;6.250;2023-12-04T08:30:34;1.00;99.90
16666;DHT22;8446;50.998;6.250;2023-12-04T08:33:01;1.00;99.90
16666;DHT22;8446;50.998;6.250;2023-12-04T08:35:28;1.10;99.90
16666;DHT22;8446;50.998;6.250;2023-12-04T08:37:55;1.10;99.90
16666;DHT22;8446;50.998;6.250;2023-12-04T08:40:23;1.10;99.90
16666;DHT22;8446;50.998;6.250;2023-12-04T08:42:50;1.10;99.90
16666;DHT22;8446;50.998;6.250;2023-12-04T08:45:17;1.10;99.90
16666;DHT22;8446;50.998;6.250;2023-12-04T08:47:44;1.10;99.90
16666;DHT22;8446;50.998;6.250;2023-12-04T08:50:11;1.00;99.90
16666;DHT22;8446;50.998;6.250;2023-12-04T08:52:38;1.00;99.90
16666;DHT22;8446;50.998;6.250;2023-12-04T08:55:07;0.90;99.90
16666;DHT22;8446;50.998;6.250;2023-12-04T08:57:36;1.00;99.90
16666;DHT22;8446;50.998;6.250;2023-12-04T09:00:03;1.00;99.90
16666;DHT22;8446;50.998;6.250;2023-12-04T09:02:30;1.00;99.90
16666;DHT22;8446;50.998;6.250;2023-12-04T09:04:57;1.10;99.90
16666;DHT22;8446;50.998;6.250;2023-12-04T09:07:24;1.30;99.90
16666;DHT22;8446;50.998;6.250;2023-12-04T09:09:51;1.40;99.90
16666;DHT22;8446;50.998;6.250;2023-12-04T09:12:18;1.50;99.90
16666;DHT22;8446;50.998;6.250;2023-12-04T09:14:46;1.60;99.90
16666;DHT22;8446;50.998;6.250;2023-12-04T09:17:13;1.60;99.90
16666;DHT22;8446;50.998;6.250;2023-12-04T09:19:40;1.60;99.90
16666;DHT22;8446;50.998;6.250;2023-12-04T09:22:07;1.50;99.90
16666;DHT22;8446;50.998;6.250;2023-12-04T09:24:34;1.60;99.90
16666;DHT22;8446;50.998;6.250;2023-12-04T09:27:01;1.60;99.90
16666;DHT22;8446;50.998;6.250;2023-12-04T09:29:28;1.60;99.90
16666;DHT22;8446;50.998;6.250;2023-12-04T09:31:56;1.70;99.90
16666;DHT22;8446;50.998;6.250;2023-12-04T09:34:23;1.70;99.90
16666;DHT22;8446;50.998;6.250;2023-12-04T09:36:50;1.60;99.90
16666;DHT22;8446;50.998;6.250;2023-12-04T09:39:17;1.60;99.90
16666;DHT22;8446;50.998;6.250;2023-12-04T09:41:44;1.60;99.90
16666;DHT22;8446;50.998;6.250;2023-12-04T09:44:12;1.70;99.90
16666;DHT22;8446;50.998;6.250;2023-12-04T09:46:39;1.70;99.90
16666;DHT22;8446;50.998;6.250;2023-12-04T09:49:08;1.70;99.90
16666;DHT22;8446;50.998;6.250;2023-12-04T09:51:36;1.70;99.90
16666;DHT22;8446;50.998;6.250;2023-12-04T09:54:04;1.70;99.90
16666;DHT22;8446;50.998;6.250;2023-12-04T09:56:33;1.70;99.90
16666;DHT22;8446;50.998;6.250;2023-12-04T09:59:00;1.60;99.90
16666;DHT22;8446;50.998;6.250;2023-12-04T10:01:29;1.60;99.90
16666;DHT22;8446;50.998;6.250;2023-12-04T10:03:57;1.60;99.90
16666;DHT22;8446;50.998;6.250;2023-12-04T10:06:27;1.60;99.90
16666;DHT22;8446;50.998;6.250;2023-12-04T10:08:55;1.60;99.90
16666;DHT22;8446;50.998;6.250;2023-12-04T10:11:23;1.60;99.90
16666;DHT22;8446;50.998;6.250;2023-12-04T10:13:50;1.70;99.90
16666;DHT22;8446;50.998;6.250;2023-12-04T10:16:31;1.70;99.90
16666;DHT22;8446;50.998;6.250;2023-12-04T10:19:14;1.70;99.90
16666;DHT22;8446;50.998;6.250;2023-12-04T10:21:44;1.60;99.90
16666;DHT22;8446;50.998;6.250;2023-12-04T10:24:11;1.70;99.90
16666;DHT22;8446;50.998;6.250;2023-12-04T10:26:49;1.70;99.90
16666;DHT22;8446;50.998;6.250;2023-12-04T10:29:16;1.70;99.90
16666;DHT22;8446;50.998;6.250;2023-12-04T10:31:43;1.70;99.90
16666;DHT22;8446;50.998;6.250;2023-12-04T10:34:10;1.70;99.90
16666;DHT22;8446;50.998;6.250;2023-12-04T10:36:37;1.70;99.90
16666;DHT22;8446;50.998;6.250;2023-12-04T10:39:05;1.70;99.90
16666;DHT22;8446;50.998;6.250;2023-12-04T10:41:38;1.80;99.90
16666;DHT22;8446;50.998;6.250;2023-12-04T10:44:05;1.80;99.90
16666;DHT22;8446;50.998;6.250;2023-12-04T10:46:32;1.80;99.90
16666;DHT22;8446;50.998;6.250;2023-12-04T10:49:00;1.80;99.90
16666;DHT22;8446;50.998;6.250;2023-12-04T10:51:29;1.80;99.90
16666;DHT22;8446;50.998;6.250;2023-12-04T10:53:56;1.80;99.90
16666;DHT22;8446;50.998;6.250;2023-12-04T10:56:30;1.80;99.90
16666;DHT22;8446;50.998;6.250;2023-12-04T10:59:00;1.80;99.90
16666;DHT22;8446;50.998;6.250;2023-12-04T11:01:28;1.90;99.90
16666;DHT22;8446;50.998;6.250;2023-12-04T11:03:59;1.90;99.90
16666;DHT22;8446;50.998;6.250;2023-12-04T11:06:29;2.00;99.90
16666;DHT22;8446;50.998;6.250;2023-12-04T11:08:58;2.00;99.90
16666;DHT22;8446;50.998;6.250;2023-12-04T11:11:31;2.10;99.90
16666;DHT22;8446;50.998;6.250;2023-12-04T11:14:01;2.00;99.90
16666;DHT22;8446;50.998;6.250;2023-12-04T11:16:33;2.00;99.90
16666;DHT22;8446;50.998;6.250;2023-12-04T11:19:14;2.10;99.90
16666;DHT22;8446;50.998;6.250;2023-12-04T11:21:45;2.10;99.90
16666;DHT22;8446;50.998;6.250;2023-12-04T11:24:12;2.10;99.90
16666;DHT22;8446;50.998;6.250;2023-12-04T11:26:40;2.00;99.90
16666;DHT22;8446;50.998;6.250;2023-12-04T11:29:08;2.00;99.90
16666;DHT22;8446;50.998;6.250;2023-12-04T11:31:36;2.00;99.90
16666;DHT22;8446;50.998;6.250;2023-12-04T11:34:03;2.00;99.90
16666;DHT22;8446;50.998;6.250;2023-12-04T11:36:31;2.00;99.90
16666;DHT22;8446;50.998;6.250;2023-12-04T11:38:57;2.00;99.90
16666;DHT22;8446;50.998;6.250;2023-12-04T11:41:26;2.00;99.90
16666;DHT22;8446;50.998;6.250;2023-12-04T11:43:56;2.00;99.90
16666;DHT22;8446;50.998;6.250;2023-12-04T11:46:24;2.00;99.90
16666;DHT22;8446;50.998;6.250;2023-12-04T11:48:54;2.00;99.90
16666;DHT22;8446;50.998;6.250;2023-12-04T11:51:50;2.00;99.90
16666;DHT22;8446;50.998;6.250;2023-12-04T11:54:19;2.10;99.90
16666;DHT22;8446;50.998;6.250;2023-12-04T11:57:19;2.20;99.90
16666;DHT22;8446;50.998;6.250;2023-12-04T11:59:48;2.30;99.90
16666;DHT22;8446;50.998;6.250;2023-12-04T12:02:15;2.20;99.90
16666;DHT22;8446;50.998;6.250;2023-12-04T12:04:43;2.30;99.90
16666;DHT22;8446;50.998;6.250;2023-12-04T12:07:11;2.30;99.90
16666;DHT22;8446;50.998;6.250;2023-12-04T12:09:38;2.30;99.90
16666;DHT22;8446;50.998;6.250;2023-12-04T12:12:06;2.20;99.90
16666;DHT22;8446;50.998;6.250;2023-12-04T12:14:34;2.00;99.90
16666;DHT22;8446;50.998;6.250;2023-12-04T12:17:02;2.00;99.90
16666;DHT22;8446;50.998;6.250;2023-12-04T12:19:29;2.00;99.90
16666;DHT22;8446;50.998;6.250;2023-12-04T12:21:56;2.20;99.90
16666;DHT22;8446;50.998;6.250;2023-12-04T12:24:23;2.20;99.90
16666;DHT22;8446;50.998;6.250;2023-12-04T12:26:51;2.30;99.90
16666;DHT22;8446;50.998;6.250;2023-12-04T12:29:20;2.20;99.90
16666;DHT22;8446;50.998;6.250;2023-12-04T12:31:47;2.20;99.90
16666;DHT22;8446;50.998;6.250;2023-12-04T12:34:15;2.30;99.90
16666;DHT22;8446;50.998;6.250;2023-12-04T12:36:42;2.40;99.90
16666;DHT22;8446;50.998;6.250;2023-12-04T12:39:09;2.40;99.90
16666;DHT22;8446;50.998;6.250;2023-12-04T12:41:37;2.40;99.90
16666;DHT22;8446;50.998;6.250;2023-12-04T12:44:04;2.40;99.90
16666;DHT22;8446;50.998;6.250;2023-12-04T12:46:31;2.30;99.90
16666;DHT22;8446;50.998;6.250;2023-12-04T12:48:58;2.10;99.90
16666;DHT22;8446;50.998;6.250;2023-12-04T12:51:27;2.10;99.90
16666;DHT22;8446;50.998;6.250;2023-12-04T12:53:57;2.10;99.90
16666;DHT22;8446;50.998;6.250;2023-12-04T12:56:25;2.10;99.90
16666;DHT22;8446;50.998;6.250;2023-12-04T12:58:52;2.10;99.90
16666;DHT22;8446;50.998;6.250;2023-12-04T13:01:22;2.10;99.90
16666;DHT22;8446;50.998;6.250;2023-12-04T13:03:50;2.10;99.90
16666;DHT22;8446;50.998;6.250;2023-12-04T13:06:17;2.00;99.90
16666;DHT22;8446;50.998;6.250;2023-12-04T13:08:46;2.00;99.90
16666;DHT22;8446;50.998;6.250;2023-12-04T13:11:13;2.00;99.90
16666;DHT22;8446;50.998;6.250;2023-12-04T13:13:40;2.00;99.90
16666;DHT22;8446;50.998;6.250;2023-12-04T13:16:08;2.00;99.90
16666;DHT22;8446;50.998;6.250;2023-12-04T13:18:34;2.00;99.90
16666;DHT22;8446;50.998;6.250;2023-12-04T13:21:03;2.00;99.90
16666;DHT22;8446;50.998;6.250;2023-12-04T13:23:30;2.20;99.90
16666;DHT22;8446;50.998;6.250;2023-12-04T13:25:58;2.20;99.90
16666;DHT22;8446;50.998;6.250;2023-12-04T13:28:25;2.20;99.90
16666;DHT22;8446;50.998;6.250;2023-12-04T13:30:52;2.20;99.90
16666;DHT22;8446;50.998;6.250;2023-12-04T13:33:21;2.20;99.90
16666;DHT22;8446;50.998;6.250;2023-12-04T13:35:48;2.20;99.90
16666;DHT22;8446;50.998;6.250;2023-12-04T13:38:16;2.20;99.90
16666;DHT22;8446;50.998;6.250;2023-12-04T13:40:43;2.10;99.90
16666;DHT22;8446;50.998;6.250;2023-12-04T13:43:26;2.10;99.90
16666;DHT22;8446;50.998;6.250;2023-12-04T13:46:10;2.10;99.90
16666;DHT22;8446;50.998;6.250;2023-12-04T13:48:37;2.00;99.90
16666;DHT22;8446;50.998;6.250;2023-12-04T13:51:06;1.90;99.90
16666;DHT22;8446;50.998;6.250;2023-12-04T13:53:33;1.90;99.90
16666;DHT22;8446;50.998;6.250;2023-12-04T13:56:01;1.90;99.90
16666;DHT22;8446;50.998;6.250;2023-12-04T13:58:51;1.80;99.90
16666;DHT22;8446;50.998;6.250;2023-12-04T14:01:23;1.80;99.90
16666;DHT22;8446;50.998;6.250;2023-12-04T14:03:52;1.80;99.90
16666;DHT22;8446;50.998;6.250;2023-12-04T14:06:19;1.80;99.90
16666;DHT22;8446;50.998;6.250;2023-12-04T14:08:46;1.80;99.90
16666;DHT22;8446;50.998;6.250;2023-12-04T14:11:13;1.70;99.90
16666;DHT22;8446;50.998;6.250;2023-12-04T14:13:40;1.80;99.90
16666;DHT22;8446;50.998;6.250;2023-12-04T14:16:10;1.70;99.90
16666;DHT22;8446;50.998;6.250;2023-12-04T14:18:37;1.70;99.90
16666;DHT22;8446;50.998;6.250;2023-12-04T14:21:04;1.70;99.90
16666;DHT22;8446;50.998;6.250;2023-12-04T14:23:31;1.70;99.90
16666;DHT22;8446;50.998;6.250;2023-12-04T14:25:58;1.70;99.90
16666;DHT22;8446;50.998;6.250;2023-12-04T14:28:26;1.70;99.90
16666;DHT22;8446;50.998;6.250;2023-12-04T14:30:53;1.70;99.90
16666;DHT22;8446;50.998;6.250;2023-12-04T14:33:22;1.70;99.90
16666;DHT22;8446;50.998;6.250;2023-12-04T14:35:49;1.60;99.90
16666;DHT22;8446;50.998;6.250;2023-12-04T14:38:16;1.60;99.90
16666;DHT22;8446;50.998;6.250;2023-12-04T14:40:43;1.50;99.90
16666;DHT22;8446;50.998;6.250;2023-12-04T14:43:10;1.50;99.90
16666;DHT22;8446;50.998;6.250;2023-12-04T14:45:37;1.50;99.90
16666;DHT22;8446;50.998;6.250;2023-12-04T14:48:05;1.40;99.90
16666;DHT22;8446;50.998;6.250;2023-12-04T14:50:34;1.30;99.90
16666;DHT22;8446;50.998;6.250;2023-12-04T14:53:02;1.20;99.90
16666;DHT22;8446;50.998;6.250;2023-12-04T14:55:42;1.10;99.90
16666;DHT22;8446;50.998;6.250;2023-12-04T14:58:25;1.10;99.90
16666;DHT22;8446;50.998;6.250;2023-12-04T15:01:38;1.10;99.90
16666;DHT22;8446;50.998;6.250;2023-12-04T15:04:22;1.10;99.90
16666;DHT22;8446;50.998;6.250;2023-12-04T15:07:13;1.10;99.90
16666;DHT22;8446;50.998;6.250;2023-12-04T15:10:07;1.10;99.90
16666;DHT22;8446;50.998;6.250;2023-12-04T15:12:53;1.20;99.90
16666;DHT22;8446;50.998;6.250;2023-12-04T15:16:05;1.10;99.90
16666;DHT22;8446;50.998;6.250;2023-12-04T15:18:52;1.10;99.90
16666;DHT22;8446;50.998;6.250;2023-12-04T15:21:46;1.10;99.90
16666;DHT22;8446;50.998;6.250;2023-12-04T15:24:13;1.20;99.90
16666;DHT22;8446;50.998;6.250;2023-12-04T15:26:40;1.10;99.90
16666;DHT22;8446;50.998;6.250;2023-12-04T15:29:06;1.10;99.90
16666;DHT22;8446;50.998;6.250;2023-12-04T15:31:33;1.20;99.90
16666;DHT22;8446;50.998;6.250;2023-12-04T15:33:59;1.20;99.90
16666;DHT22;8446;50.998;6.250;2023-12-04T15:36:26;1.20;99.90
16666;DHT22;8446;50.998;6.250;2023-12-04T15:38:53;1.20;99.90
16666;DHT22;8446;50.998;6.250;2023-12-04T15:41:20;1.20;99.90
16666;DHT22;8446;50.998;6.250;2023-12-04T15:43:47;1.20;99.90
16666;DHT22;8446;50.998;6.250;2023-12-04T15:46:14;1.20;99.90
16666;DHT22;8446;50.998;6.250;2023-12-04T15:48:42;1.20;99.90
16666;DHT22;8446;50.998;6.250;2023-12-04T15:51:08;1.20;99.90
16666;DHT22;8446;50.998;6.250;2023-12-04T15:53:36;1.20;99.90
16666;DHT22;8446;50.998;6.250;2023-12-04T15:56:02;1.30;99.90
16666;DHT22;8446;50.998;6.250;2023-12-04T15:58:32;1.20;99.90
16666;DHT22;8446;50.998;6.250;2023-12-04T16:00:58;1.20;99.90
16666;DHT22;8446;50.998;6.250;2023-12-04T16:03:25;1.20;99.90
16666;DHT22;8446;50.998;6.250;2023-12-04T16:05:52;1.20;99.90
16666;DHT22;8446;50.998;6.250;2023-12-04T16:08:18;1.20;99.90
16666;DHT22;8446;50.998;6.250;2023-12-04T16:10:45;1.20;99.90